Time;durP1;ratioP1;P1;durP2;ratioP2;P2;SDS_P1;SDS_P2;PMS_P1;PMS_P2;Temp;Humidity;BMP_temperature;BMP_pressure;BME280_temperature;BME280_humidity;BME280_pressure;Samples;Min_cycle;Max_cycle;Signal;HPM_P1;HPM_P2
2021/01/25 00:00:22;;;;;;;10.05;4.70;;;-1.70;99.90;;;;;;5075277;28;20105;-52
2021/01/25 00:02:48;;;;;;;11.70;6.55;;;-1.70;99.90;;;;;;5079572;28;20043;-50
2021/01/25 00:05:14;;;;;;;10.05;4.13;;;-1.70;99.90;;;;;;5080047;28;20040;-49
2021/01/25 00:07:40;;;;;;;11.95;4.22;;;-1.70;99.90;;;;;;5079311;28;20372;-51
2021/01/25 00:10:07;;;;;;;9.38;4.68;;;-1.70;99.90;;;;;;5079407;28;20420;-52
2021/01/25 00:12:33;;;;;;;11.63;4.50;;;-1.70;99.90;;;;;;5060841;28;20096;-54
2021/01/25 00:14:59;;;;;;;15.50;5.90;;;-1.80;99.90;;;;;;5052458;28;20032;-51
2021/01/25 00:17:25;;;;;;;7.93;4.78;;;-1.90;99.90;;;;;;5044654;28;20041;-55
2021/01/25 00:19:50;;;;;;;11.15;6.10;;;-2.00;99.90;;;;;;5045824;28;20029;-52
2021/01/25 00:22:16;;;;;;;8.40;4.45;;;-2.10;99.90;;;;;;5053612;28;20707;-52
2021/01/25 00:24:41;;;;;;;13.32;5.43;;;-2.10;99.90;;;;;;5065245;28;20028;-51
2021/01/25 00:27:08;;;;;;;13.15;5.53;;;-2.20;99.90;;;;;;5065351;28;20032;-51
2021/01/25 00:29:34;;;;;;;10.25;5.30;;;-2.20;99.90;;;;;;5065320;28;20036;-48
2021/01/25 00:32:00;;;;;;;8.60;4.88;;;-2.30;99.90;;;;;;5062130;28;20047;-50
2021/01/25 00:34:25;;;;;;;10.65;4.57;;;-2.30;99.90;;;;;;5064889;28;20056;-55
2021/01/25 00:36:51;;;;;;;12.05;5.63;;;-2.30;99.90;;;;;;5064637;28;20033;-49
2021/01/25 00:39:17;;;;;;;11.93;5.30;;;-2.40;99.90;;;;;;5065447;28;20119;-49
2021/01/25 00:41:43;;;;;;;11.55;6.63;;;-2.40;99.90;;;;;;5063944;28;20036;-52
2021/01/25 00:44:08;;;;;;;10.98;5.13;;;-2.40;99.90;;;;;;5064133;28;20036;-51
2021/01/25 00:46:34;;;;;;;12.00;6.93;;;-2.50;99.90;;;;;;5062366;28;20045;-51
2021/01/25 00:49:00;;;;;;;13.10;5.88;;;-2.50;99.90;;;;;;5057867;28;20036;-50
2021/01/25 00:51:25;;;;;;;13.93;5.95;;;-2.40;99.90;;;;;;5063526;28;20036;-53
2021/01/25 00:53:51;;;;;;;8.85;4.90;;;-2.50;99.90;;;;;;5064551;28;20033;-52
2021/01/25 00:56:17;;;;;;;7.85;4.80;;;-2.60;99.90;;;;;;5064629;28;20040;-56
2021/01/25 00:58:42;;;;;;;9.02;3.95;;;-2.60;99.90;;;;;;5065195;28;20040;-55
2021/01/25 01:01:08;;;;;;;12.55;4.32;;;-2.60;99.90;;;;;;5063385;28;20776;-55
2021/01/25 01:03:33;;;;;;;9.50;4.68;;;-2.60;99.90;;;;;;5064759;28;20067;-55
2021/01/25 01:05:59;;;;;;;7.28;4.63;;;-2.50;99.90;;;;;;5064302;28;20028;-52
2021/01/25 01:08:25;;;;;;;9.75;4.80;;;-2.60;99.90;;;;;;5065235;28;20408;-54
2021/01/25 01:10:50;;;;;;;9.48;5.30;;;-2.60;99.90;;;;;;5059315;28;20049;-50
2021/01/25 01:13:16;;;;;;;10.13;5.60;;;-2.60;99.90;;;;;;5064691;28;20036;-54
2021/01/25 01:15:42;;;;;;;11.25;4.75;;;-2.50;99.90;;;;;;5064200;28;20408;-53
2021/01/25 01:18:07;;;;;;;8.65;4.70;;;-2.60;99.90;;;;;;5064250;28;20119;-54
2021/01/25 01:20:33;;;;;;;11.68;6.35;;;-2.50;99.90;;;;;;5064596;28;20044;-50
2021/01/25 01:22:58;;;;;;;10.30;5.68;;;-2.50;99.90;;;;;;5063363;28;20040;-54
2021/01/25 01:25:24;;;;;;;8.30;5.35;;;-2.60;99.90;;;;;;5064404;28;20832;-53
2021/01/25 01:27:50;;;;;;;12.07;5.80;;;-2.70;99.90;;;;;;5059275;28;20032;-50
2021/01/25 01:30:16;;;;;;;11.18;5.65;;;-2.70;99.90;;;;;;5063007;28;20109;-53
2021/01/25 01:32:41;;;;;;;8.70;4.68;;;-2.70;99.90;;;;;;5063982;28;20036;-53
2021/01/25 01:35:07;;;;;;;9.93;5.13;;;-2.60;99.90;;;;;;5063779;28;20808;-52
2021/01/25 01:37:34;;;;;;;10.32;5.53;;;-2.60;99.90;;;;;;5064064;28;20047;-55
2021/01/25 01:40:03;;;;;;;12.32;5.30;;;-2.70;99.90;;;;;;5063267;28;20044;-50
2021/01/25 01:42:28;;;;;;;10.95;5.35;;;-2.60;99.90;;;;;;5063780;28;20250;-50
2021/01/25 01:44:54;;;;;;;11.15;5.45;;;-2.60;99.90;;;;;;5063560;28;20165;-55
2021/01/25 01:47:21;;;;;;;17.05;5.78;;;-2.60;99.90;;;;;;5063071;28;20646;-57
2021/01/25 01:49:49;;;;;;;10.40;5.18;;;-2.60;99.90;;;;;;5062938;28;20127;-56
2021/01/25 01:52:15;;;;;;;12.93;5.75;;;-2.60;99.90;;;;;;5063038;28;20032;-53
2021/01/25 01:54:41;;;;;;;10.52;5.05;;;-2.50;99.90;;;;;;5054797;28;20033;-50
2021/01/25 01:57:07;;;;;;;13.23;4.47;;;-2.50;99.90;;;;;;5044232;28;20037;-47
2021/01/25 01:59:33;;;;;;;11.18;5.35;;;-2.50;99.90;;;;;;5048469;28;20075;-50
2021/01/25 02:01:58;;;;;;;8.15;5.30;;;-2.50;99.90;;;;;;5061177;28;20512;-51
2021/01/25 02:04:24;;;;;;;10.55;5.10;;;-2.60;99.90;;;;;;5062834;28;20037;-49
2021/01/25 02:06:51;;;;;;;9.57;5.32;;;-2.60;99.90;;;;;;5064095;28;20044;-52
2021/01/25 02:09:17;;;;;;;10.52;5.90;;;-2.60;99.90;;;;;;5063205;28;20060;-48
2021/01/25 02:11:44;;;;;;;11.00;5.70;;;-2.60;99.90;;;;;;5062074;28;20078;-52
2021/01/25 02:14:09;;;;;;;9.95;5.07;;;-2.70;99.90;;;;;;5060822;28;20451;-49
2021/01/25 02:16:42;;;;;;;11.40;4.70;;;-2.60;99.90;;;;;;5059543;28;20132;-53
2021/01/25 02:19:14;;;;;;;8.77;5.03;;;-2.70;99.90;;;;;;5062548;28;20036;-52
2021/01/25 02:21:54;;;;;;;9.15;5.18;;;-2.60;99.90;;;;;;5062780;28;20048;-52
2021/01/25 02:24:29;;;;;;;12.18;4.32;;;-2.60;99.90;;;;;;5055894;28;20052;-55
2021/01/25 02:27:17;;;;;;;11.70;4.55;;;-2.60;99.90;;;;;;5063224;28;20044;-49
2021/01/25 02:29:44;;;;;;;6.78;3.85;;;-2.50;99.90;;;;;;5063213;28;20032;-49
2021/01/25 02:32:11;;;;;;;6.85;4.32;;;-2.50;99.90;;;;;;5060821;28;20036;-52
2021/01/25 02:34:37;;;;;;;15.90;5.50;;;-2.50;99.90;;;;;;5063084;28;20070;-51
2021/01/25 02:37:04;;;;;;;10.88;5.03;;;-2.60;99.90;;;;;;5062417;28;20033;-51
2021/01/25 02:39:30;;;;;;;8.65;4.90;;;-2.60;99.90;;;;;;5062523;28;20051;-51
2021/01/25 02:41:57;;;;;;;7.28;4.30;;;-2.60;99.90;;;;;;5061857;28;20447;-48
2021/01/25 02:44:23;;;;;;;7.53;4.53;;;-2.50;99.90;;;;;;5062036;28;20143;-50
2021/01/25 02:46:50;;;;;;;10.75;5.22;;;-2.50;99.90;;;;;;5062253;28;20719;-53
2021/01/25 02:49:15;;;;;;;9.18;4.90;;;-2.40;99.90;;;;;;5063112;28;20035;-55
2021/01/25 02:51:41;;;;;;;10.70;5.88;;;-2.60;99.90;;;;;;5062297;28;20029;-49
2021/01/25 02:54:07;;;;;;;10.82;5.45;;;-2.60;99.90;;;;;;5062465;28;20662;-54
2021/01/25 02:56:32;;;;;;;14.90;5.72;;;-2.60;99.90;;;;;;5061959;28;20492;-51
2021/01/25 02:58:59;;;;;;;6.80;4.50;;;-2.50;99.90;;;;;;5063196;28;20559;-51
2021/01/25 03:01:26;;;;;;;9.55;5.45;;;-2.50;99.90;;;;;;5060250;28;20531;-51
2021/01/25 03:03:52;;;;;;;8.15;5.00;;;-2.40;99.90;;;;;;5062029;28;20036;-53
2021/01/25 03:06:19;;;;;;;15.07;5.50;;;-2.40;99.90;;;;;;5060033;28;20459;-51
2021/01/25 03:08:45;;;;;;;9.88;5.25;;;-2.40;99.90;;;;;;5063266;28;20119;-51
2021/01/25 03:11:11;;;;;;;9.40;5.25;;;-2.40;99.90;;;;;;5051838;28;20087;-52
2021/01/25 03:13:37;;;;;;;15.10;5.22;;;-2.40;99.90;;;;;;5042669;28;20041;-53
2021/01/25 03:16:03;;;;;;;11.55;5.25;;;-2.50;99.90;;;;;;5042803;28;20103;-54
2021/01/25 03:18:28;;;;;;;10.77;4.45;;;-2.50;99.90;;;;;;5044788;28;20045;-52
2021/01/25 03:20:55;;;;;;;11.30;5.18;;;-2.60;99.90;;;;;;5061875;28;20508;-47
2021/01/25 03:23:21;;;;;;;15.25;5.95;;;-2.60;99.90;;;;;;5062067;28;20745;-47
2021/01/25 03:25:47;;;;;;;9.15;4.88;;;-2.60;99.90;;;;;;5060783;28;20159;-53
2021/01/25 03:28:13;;;;;;;9.73;5.35;;;-2.60;99.90;;;;;;5062226;28;20041;-52
2021/01/25 03:30:38;;;;;;;9.15;5.60;;;-2.70;99.90;;;;;;5061468;28;20447;-57
2021/01/25 03:33:05;;;;;;;12.55;5.70;;;-2.80;99.90;;;;;;5062224;28;20211;-53
2021/01/25 03:35:30;;;;;;;13.65;6.07;;;-2.80;99.90;;;;;;5061096;28;20138;-55
2021/01/25 03:37:56;;;;;;;8.30;5.13;;;-2.80;99.90;;;;;;5061736;28;20467;-57
2021/01/25 03:40:22;;;;;;;9.88;5.55;;;-2.80;99.90;;;;;;5061497;28;20045;-54
2021/01/25 03:42:47;;;;;;;10.38;5.00;;;-2.70;99.90;;;;;;5062435;28;20039;-53
2021/01/25 03:45:13;;;;;;;8.15;4.97;;;-2.60;99.90;;;;;;5062139;28;20668;-51
2021/01/25 03:47:38;;;;;;;10.65;5.38;;;-2.60;99.90;;;;;;5060613;28;20446;-53
2021/01/25 03:50:05;;;;;;;10.70;5.55;;;-2.60;99.90;;;;;;5063545;28;20683;-54
2021/01/25 03:52:31;;;;;;;7.75;4.85;;;-2.50;99.90;;;;;;5065648;28;20076;-55
2021/01/25 03:54:56;;;;;;;9.95;4.78;;;-2.50;99.90;;;;;;5066136;28;20070;-50
2021/01/25 03:57:22;;;;;;;9.15;4.90;;;-2.40;99.90;;;;;;5066005;28;20492;-51
2021/01/25 03:59:47;;;;;;;10.13;5.40;;;-2.30;99.90;;;;;;5066130;28;20415;-53
2021/01/25 04:02:13;;;;;;;13.00;4.15;;;-2.30;99.90;;;;;;5057447;28;20047;-52
2021/01/25 04:04:42;;;;;;;14.60;4.57;;;-2.30;99.90;;;;;;5046332;28;20077;-52
2021/01/25 04:07:10;;;;;;;9.98;5.72;;;-2.30;99.90;;;;;;5046434;28;20041;-54
2021/01/25 04:09:36;;;;;;;10.70;4.90;;;-2.30;99.90;;;;;;5064483;28;20043;-54
2021/01/25 04:12:02;;;;;;;13.63;4.43;;;-2.30;99.90;;;;;;5053887;28;20037;-54
2021/01/25 04:14:27;;;;;;;8.98;4.25;;;-2.40;99.90;;;;;;5049353;28;20055;-57
2021/01/25 04:16:53;;;;;;;10.02;5.20;;;-2.50;99.90;;;;;;5063714;28;20062;-54
2021/01/25 04:19:19;;;;;;;16.67;6.40;;;-2.60;99.90;;;;;;5065547;28;20076;-53
2021/01/25 04:21:44;;;;;;;9.50;4.93;;;-2.60;99.90;;;;;;5064481;28;20082;-54
2021/01/25 04:24:10;;;;;;;8.13;5.75;;;-2.70;99.90;;;;;;5069721;28;20072;-51
2021/01/25 04:26:41;;;;;;;9.23;4.72;;;-2.70;99.90;;;;;;5053627;28;20044;-52
2021/01/25 04:29:10;;;;;;;12.48;5.60;;;-2.70;99.90;;;;;;5065658;28;20036;-51
2021/01/25 04:31:36;;;;;;;11.23;4.60;;;-2.70;99.90;;;;;;5064272;28;20044;-54
2021/01/25 04:34:02;;;;;;;11.80;4.70;;;-2.70;99.90;;;;;;5065871;28;20036;-50
2021/01/25 04:36:28;;;;;;;12.82;4.53;;;-2.50;99.90;;;;;;5065128;28;20049;-49
2021/01/25 04:38:53;;;;;;;10.30;4.63;;;-2.40;99.90;;;;;;5048949;28;20037;-50
2021/01/25 04:41:19;;;;;;;9.30;4.65;;;-2.30;99.90;;;;;;5046049;28;20090;-56
2021/01/25 04:43:46;;;;;;;9.00;4.30;;;-2.20;99.90;;;;;;5046170;28;20465;-56
2021/01/25 04:46:13;;;;;;;11.00;4.18;;;-2.20;99.90;;;;;;5045727;28;20036;-53
2021/01/25 04:48:40;;;;;;;13.23;4.70;;;-2.20;99.90;;;;;;5045651;28;20052;-52
2021/01/25 04:51:06;;;;;;;9.23;4.03;;;-2.20;99.90;;;;;;5055208;28;20089;-52
2021/01/25 04:53:32;;;;;;;11.88;4.55;;;-2.20;99.90;;;;;;5065712;28;20048;-51
2021/01/25 04:55:58;;;;;;;7.88;4.10;;;-2.30;99.90;;;;;;5066509;28;20451;-51
2021/01/25 04:58:25;;;;;;;9.05;4.70;;;-2.30;99.90;;;;;;5066177;28;20036;-52
2021/01/25 05:00:51;;;;;;;9.35;4.90;;;-2.30;99.90;;;;;;5064580;28;20123;-52
2021/01/25 05:03:16;;;;;;;8.98;4.50;;;-2.30;99.90;;;;;;5064580;28;20047;-51
2021/01/25 05:05:42;;;;;;;9.23;4.72;;;-2.20;99.90;;;;;;5064642;28;20769;-52
2021/01/25 05:08:08;;;;;;;6.30;4.00;;;-2.30;99.90;;;;;;5064357;28;20806;-55
2021/01/25 05:10:34;;;;;;;8.57;3.85;;;-2.20;99.90;;;;;;5064500;28;20036;-56
2021/01/25 05:12:59;;;;;;;6.30;3.83;;;-2.20;99.90;;;;;;5064628;28;20055;-50
2021/01/25 05:15:33;;;;;;;8.57;4.30;;;-2.20;99.90;;;;;;5063971;28;20052;-51
2021/01/25 05:18:07;;;;;;;12.00;4.53;;;-2.10;99.90;;;;;;5064435;28;20055;-54
2021/01/25 05:20:33;;;;;;;8.02;3.78;;;-2.10;99.90;;;;;;5057123;28;20040;-53
2021/01/25 05:23:00;;;;;;;8.75;4.13;;;-2.10;99.90;;;;;;5064277;28;20075;-55
2021/01/25 05:25:33;;;;;;;11.73;4.40;;;-2.10;99.90;;;;;;5064025;28;20029;-50
2021/01/25 05:28:00;;;;;;;11.27;5.55;;;-2.10;99.90;;;;;;5063221;28;20259;-52
2021/01/25 05:30:27;;;;;;;14.82;5.35;;;-2.20;99.90;;;;;;5063292;28;20041;-53
2021/01/25 05:32:57;;;;;;;15.15;5.43;;;-2.30;99.90;;;;;;5064583;28;20048;-54
2021/01/25 05:35:29;;;;;;;14.88;6.00;;;-2.40;99.90;;;;;;5064249;28;20374;-54
2021/01/25 05:37:58;;;;;;;12.65;5.45;;;-2.50;99.90;;;;;;5064438;28;20067;-51
2021/01/25 05:40:28;;;;;;;14.35;5.95;;;-2.60;99.90;;;;;;5063608;28;20550;-50
2021/01/25 05:42:55;;;;;;;17.73;6.43;;;-2.60;99.90;;;;;;5063998;28;20048;-53
2021/01/25 05:45:22;;;;;;;10.07;5.38;;;-2.60;99.90;;;;;;5061227;28;20520;-53
2021/01/25 05:47:57;;;;;;;16.15;5.35;;;-2.60;99.90;;;;;;5060820;28;20028;-52
2021/01/25 05:50:32;;;;;;;14.52;6.25;;;-2.60;99.90;;;;;;5062823;28;20070;-52
2021/01/25 05:53:00;;;;;;;12.00;6.32;;;-2.70;99.90;;;;;;5063843;28;20048;-53
2021/01/25 05:55:27;;;;;;;17.20;6.70;;;-2.70;99.90;;;;;;5063073;28;20040;-51
2021/01/25 05:57:53;;;;;;;12.88;6.32;;;-2.60;99.90;;;;;;5064238;28;20029;-50
2021/01/25 06:00:19;;;;;;;13.20;6.43;;;-2.60;99.90;;;;;;5061178;28;20123;-53
2021/01/25 06:02:47;;;;;;;18.25;6.72;;;-2.60;99.90;;;;;;5061928;28;20139;-55
2021/01/25 06:05:31;;;;;;;14.75;6.22;;;-2.60;99.90;;;;;;5063821;28;20047;-50
2021/01/25 06:08:20;;;;;;;11.52;5.93;;;-2.50;99.90;;;;;;5063222;28;20539;-52
2021/01/25 06:11:08;;;;;;;13.32;5.80;;;-2.60;99.90;;;;;;5048750;28;20047;-53
2021/01/25 06:13:58;;;;;;;14.45;6.63;;;-2.70;99.90;;;;;;5057846;28;20111;-53
2021/01/25 06:16:29;;;;;;;18.35;7.03;;;-2.60;99.90;;;;;;5061995;28;20462;-54
2021/01/25 06:19:08;;;;;;;20.48;6.78;;;-2.70;99.90;;;;;;5063134;28;20500;-54
2021/01/25 06:21:37;;;;;;;17.77;7.47;;;-2.70;99.90;;;;;;5062258;28;20112;-48
2021/01/25 06:24:04;;;;;;;16.98;6.70;;;-2.70;99.90;;;;;;5060915;28;20106;-50
2021/01/25 06:26:31;;;;;;;16.98;7.07;;;-2.60;99.90;;;;;;5063064;28;20068;-56
2021/01/25 06:29:04;;;;;;;15.23;6.35;;;-2.60;99.90;;;;;;5058955;28;20037;-54
2021/01/25 06:31:38;;;;;;;13.05;6.78;;;-2.60;99.90;;;;;;5062995;28;20512;-56
2021/01/25 06:34:07;;;;;;;13.95;7.28;;;-2.50;99.90;;;;;;5063996;28;20047;-56
2021/01/25 06:36:34;;;;;;;11.90;6.47;;;-2.60;99.90;;;;;;5067040;28;20109;-52
2021/01/25 06:39:05;;;;;;;11.57;6.10;;;-2.50;99.90;;;;;;5067099;28;20119;-51
2021/01/25 06:41:58;;;;;;;13.73;6.80;;;-2.60;99.90;;;;;;5065239;28;20058;-56
2021/01/25 06:44:24;;;;;;;11.93;7.18;;;-2.60;99.90;;;;;;5063249;28;20056;-54
2021/01/25 06:46:57;;;;;;;12.52;5.80;;;-2.70;99.90;;;;;;5065033;28;20044;-55
2021/01/25 06:49:24;;;;;;;16.45;6.78;;;-2.60;99.90;;;;;;5066193;28;20385;-55
2021/01/25 06:51:52;;;;;;;11.70;6.95;;;-2.60;99.90;;;;;;5067264;28;20119;-58
2021/01/25 06:54:22;;;;;;;12.65;6.60;;;-2.60;99.90;;;;;;5065257;28;20082;-53
2021/01/25 06:56:58;;;;;;;13.60;6.57;;;-2.60;99.90;;;;;;5069737;28;20040;-52
2021/01/25 06:59:26;;;;;;;13.52;6.50;;;-2.50;99.90;;;;;;5065500;28;20060;-55
2021/01/25 07:01:54;;;;;;;11.80;6.55;;;-2.50;99.90;;;;;;5062857;28;20040;-55
2021/01/25 07:04:24;;;;;;;13.13;7.30;;;-2.50;99.90;;;;;;5066580;28;20028;-55
2021/01/25 07:06:53;;;;;;;17.40;7.22;;;-2.50;99.90;;;;;;5067104;28;20530;-53
2021/01/25 07:09:28;;;;;;;16.23;7.03;;;-2.60;99.90;;;;;;5054718;28;20178;-54
2021/01/25 07:11:56;;;;;;;14.82;7.63;;;-2.50;99.90;;;;;;5048258;28;20685;-53
2021/01/25 07:14:24;;;;;;;15.68;7.38;;;-2.50;99.90;;;;;;5044641;28;20057;-55
2021/01/25 07:16:53;;;;;;;12.80;6.60;;;-2.50;99.90;;;;;;5052797;28;20048;-54
2021/01/25 07:19:19;;;;;;;14.00;7.13;;;-2.40;99.90;;;;;;5053433;28;20074;-54
2021/01/25 07:21:48;;;;;;;13.00;7.20;;;-2.50;99.90;;;;;;5045643;28;20041;-54
2021/01/25 07:24:23;;;;;;;13.20;5.97;;;-2.50;99.90;;;;;;5065345;28;20037;-54
2021/01/25 07:26:53;;;;;;;10.43;6.00;;;-2.40;99.90;;;;;;5069525;28;20037;-56
2021/01/25 07:29:20;;;;;;;39.42;16.38;;;-2.30;99.90;;;;;;5068667;28;20177;-56
2021/01/25 07:31:46;;;;;;;19.77;9.40;;;-2.40;99.90;;;;;;5065804;28;20044;-52
2021/01/25 07:34:12;;;;;;;111.97;57.03;;;-2.40;99.90;;;;;;5066341;28;20044;-54
2021/01/25 07:36:38;;;;;;;87.13;31.42;;;-2.30;99.90;;;;;;5066991;28;20047;-54
2021/01/25 07:39:06;;;;;;;58.03;22.63;;;-2.30;99.90;;;;;;5068648;28;20044;-55
2021/01/25 07:41:32;;;;;;;93.20;40.33;;;-2.30;99.90;;;;;;5066972;28;20076;-54
2021/01/25 07:44:00;;;;;;;63.80;24.05;;;-2.20;99.90;;;;;;5067329;28;20122;-53
2021/01/25 07:46:25;;;;;;;125.18;45.35;;;-2.20;99.90;;;;;;5066167;28;20097;-53
2021/01/25 07:48:53;;;;;;;130.95;46.08;;;-2.10;99.90;;;;;;5066593;28;20029;-57
2021/01/25 07:51:30;;;;;;;84.03;32.25;;;-2.10;99.90;;;;;;5057369;28;20603;-53
2021/01/25 07:53:56;;;;;;;163.68;69.47;;;-1.80;99.90;;;;;;5067263;28;20048;-55
2021/01/25 07:56:25;;;;;;;116.22;43.72;;;-1.70;99.90;;;;;;5066799;28;20059;-54
2021/01/25 07:59:06;;;;;;;131.25;44.25;;;-1.70;99.90;;;;;;5067987;28;20036;-53
2021/01/25 08:01:41;;;;;;;310.05;117.93;;;-1.90;99.90;;;;;;5063935;28;20040;-56
2021/01/25 08:04:12;;;;;;;248.85;83.25;;;-1.80;99.90;;;;;;5066562;28;20582;-57
2021/01/25 08:06:38;;;;;;;157.02;54.95;;;-1.80;99.90;;;;;;5066978;28;20052;-59
2021/01/25 08:09:10;;;;;;;87.50;36.80;;;-1.80;99.90;;;;;;5065094;28;20035;-54
2021/01/25 08:11:38;;;;;;;41.50;18.42;;;-1.80;99.90;;;;;;5061444;28;20043;-54
2021/01/25 08:14:33;;;;;;;59.60;29.48;;;-1.90;99.90;;;;;;5069104;28;20048;-53
2021/01/25 08:17:06;;;;;;;47.72;23.60;;;-2.00;99.90;;;;;;5066672;28;20099;-52
2021/01/25 08:19:51;;;;;;;81.00;32.88;;;-1.90;99.90;;;;;;5060148;28;20122;-55
2021/01/25 08:22:38;;;;;;;70.28;34.17;;;-1.90;99.90;;;;;;5062605;28;20039;-48
2021/01/25 08:25:04;;;;;;;;;;;-1.90;99.90;;;;;;5067309;28;20679;-49
2021/01/25 08:27:32;;;;;;;68.35;29.63;;;-1.70;99.90;;;;;;5067077;28;19917;-53
2021/01/25 08:30:11;;;;;;;57.97;25.60;;;-1.60;99.90;;;;;;5064179;28;20127;-55
2021/01/25 08:32:42;;;;;;;54.60;23.95;;;-1.50;99.90;;;;;;5062375;28;20403;-51
2021/01/25 08:35:10;;;;;;;51.15;22.40;;;-1.40;99.90;;;;;;5068094;28;20052;-55
2021/01/25 08:40:20;;;;;;;46.53;21.52;;;-1.20;99.90;;;;;;5258084;23;20102;-51
2021/01/25 08:42:47;;;;;;;67.97;30.08;;;-1.10;99.90;;;;;;5016239;28;20089;-53
2021/01/25 08:45:33;;;;;;;52.42;23.23;;;-1.10;99.90;;;;;;5019159;28;20618;-55
2021/01/25 08:48:32;;;;;;;49.55;19.70;;;-1.20;99.90;;;;;;5019514;28;20040;-55
2021/01/25 08:51:30;;;;;;;36.47;18.15;;;-1.30;99.90;;;;;;4998679;28;20064;-53
2021/01/25 08:54:01;;;;;;;88.05;46.53;;;-1.20;99.90;;;;;;5004657;28;20054;-55
2021/01/25 08:56:35;;;;;;;37.33;18.50;;;-1.20;99.90;;;;;;5007218;28;20048;-50
2021/01/25 08:59:13;;;;;;;32.83;17.08;;;-1.20;99.90;;;;;;5004238;28;20546;-54
2021/01/25 09:01:43;;;;;;;33.08;16.35;;;-1.20;99.90;;;;;;5002165;28;20548;-52
2021/01/25 09:04:09;;;;;;;27.15;13.13;;;-1.20;99.90;;;;;;5000913;28;20038;-54
2021/01/25 09:06:49;;;;;;;27.23;14.52;;;-1.10;99.90;;;;;;4990839;28;20053;-53
2021/01/25 09:09:15;;;;;;;34.75;18.77;;;-0.90;99.90;;;;;;4985210;28;20050;-55
2021/01/25 09:11:41;;;;;;;35.80;19.52;;;-0.80;99.90;;;;;;5000179;28;20057;-56
2021/01/25 09:14:07;;;;;;;26.13;13.80;;;-0.90;99.90;;;;;;5006625;28;20107;-54
2021/01/25 09:16:32;;;;;;;25.55;14.57;;;-0.80;99.90;;;;;;5006975;28;20125;-52
2021/01/25 09:18:58;;;;;;;22.98;12.18;;;-0.80;99.90;;;;;;5005501;28;20048;-55
2021/01/25 09:21:23;;;;;;;17.60;9.38;;;-0.70;99.90;;;;;;5004647;28;20120;-54
2021/01/25 09:23:49;;;;;;;142.75;71.68;;;-0.60;99.90;;;;;;5005454;28;20634;-52
2021/01/25 09:26:15;;;;;;;43.15;21.52;;;-0.50;99.90;;;;;;5002668;28;20048;-51
2021/01/25 09:28:40;;;;;;;28.27;13.73;;;-0.60;99.90;;;;;;5002670;28;20052;-49
2021/01/25 09:31:06;;;;;;;24.27;12.00;;;-0.60;99.90;;;;;;5005282;28;20065;-50
2021/01/25 09:33:31;;;;;;;21.65;10.65;;;-0.60;99.90;;;;;;5009208;28;20068;-52
2021/01/25 09:35:57;;;;;;;18.67;9.93;;;-0.50;99.90;;;;;;5011447;28;20141;-55
2021/01/25 09:38:22;;;;;;;23.10;11.70;;;-0.40;99.90;;;;;;5005669;28;20132;-58
2021/01/25 09:40:49;;;;;;;24.52;12.15;;;-0.30;99.90;;;;;;5005271;28;20061;-57
2021/01/25 09:43:15;;;;;;;21.75;10.80;;;-0.10;99.90;;;;;;5005594;28;20074;-53
2021/01/25 09:45:40;;;;;;;22.65;10.95;;;-0.10;99.90;;;;;;5005920;28;20054;-54
2021/01/25 09:48:06;;;;;;;18.42;10.45;;;0.00;99.90;;;;;;5003116;28;20875;-56
2021/01/25 09:50:32;;;;;;;20.88;11.50;;;0.00;99.90;;;;;;5012839;28;20075;-55
2021/01/25 09:52:57;;;;;;;17.05;9.25;;;0.10;99.90;;;;;;4998093;28;20049;-53
2021/01/25 09:55:23;;;;;;;16.55;8.73;;;0.10;99.90;;;;;;4998428;28;20034;-56
2021/01/25 09:57:49;;;;;;;34.92;18.48;;;0.20;99.90;;;;;;5004672;28;20038;-53
2021/01/25 10:00:15;;;;;;;17.15;10.32;;;0.20;99.90;;;;;;5004064;28;20204;-52
2021/01/25 10:02:41;;;;;;;13.23;7.78;;;0.20;99.90;;;;;;4998671;28;20034;-55
2021/01/25 10:05:08;;;;;;;12.88;7.60;;;0.20;99.90;;;;;;5005115;28;20114;-54
2021/01/25 10:07:35;;;;;;;14.13;8.00;;;0.30;99.90;;;;;;5006157;28;20045;-54
2021/01/25 10:10:04;;;;;;;20.25;10.68;;;0.30;99.90;;;;;;5003917;28;20049;-54
2021/01/25 10:12:29;;;;;;;22.00;11.10;;;0.20;99.90;;;;;;4999363;28;20060;-54
2021/01/25 10:14:55;;;;;;;27.85;11.93;;;0.20;99.90;;;;;;4997713;28;20565;-53
2021/01/25 10:17:21;;;;;;;38.97;22.17;;;0.30;99.90;;;;;;5004773;28;20053;-54
2021/01/25 10:19:46;;;;;;;25.25;13.30;;;0.40;99.90;;;;;;5004396;28;20767;-54
2021/01/25 10:22:12;;;;;;;18.13;9.43;;;0.40;99.90;;;;;;5005427;28;20464;-54
2021/01/25 10:24:37;;;;;;;13.70;8.32;;;0.50;99.90;;;;;;5004654;28;20100;-54
2021/01/25 10:27:03;;;;;;;18.25;9.05;;;0.50;99.90;;;;;;5004804;28;20045;-53
2021/01/25 10:29:28;;;;;;;16.17;9.25;;;0.50;99.90;;;;;;5004758;28;20068;-57
2021/01/25 10:31:54;;;;;;;17.80;9.57;;;0.60;99.90;;;;;;5002988;28;20040;-55
2021/01/25 10:34:20;;;;;;;66.13;35.15;;;0.60;99.90;;;;;;5003527;28;20657;-55
2021/01/25 10:36:45;;;;;;;73.60;39.28;;;0.60;99.90;;;;;;5004229;28;20649;-50
2021/01/25 10:39:11;;;;;;;31.27;16.33;;;0.70;99.90;;;;;;4996770;28;20439;-55
2021/01/25 10:41:36;;;;;;;21.60;12.60;;;0.70;99.90;;;;;;5002922;28;20184;-52
2021/01/25 10:44:02;;;;;;;18.75;10.55;;;0.70;99.90;;;;;;5005469;28;20042;-54
2021/01/25 10:46:27;;;;;;;26.27;12.98;;;0.80;99.90;;;;;;5003992;28;20593;-57
2021/01/25 10:48:53;;;;;;;26.45;16.27;;;0.90;99.90;;;;;;5004125;28;20510;-55
2021/01/25 10:51:18;;;;;;;18.55;10.95;;;1.00;99.90;;;;;;5003847;28;20034;-49
2021/01/25 10:53:44;;;;;;;22.67;11.40;;;1.00;99.90;;;;;;4998938;28;20046;-54
2021/01/25 10:56:09;;;;;;;17.25;9.82;;;0.90;99.90;;;;;;5005543;28;20033;-54
2021/01/25 10:58:37;;;;;;;18.40;10.40;;;0.90;99.90;;;;;;5004186;28;20042;-55
2021/01/25 11:01:03;;;;;;;16.83;9.57;;;1.00;99.90;;;;;;5001129;28;20041;-56
2021/01/25 11:03:28;;;;;;;16.88;10.25;;;1.00;99.90;;;;;;5004276;28;20042;-54
2021/01/25 11:05:53;;;;;;;42.10;24.70;;;1.10;99.90;;;;;;5003327;28;20045;-54
2021/01/25 11:08:19;;;;;;;27.83;16.30;;;1.20;99.90;;;;;;5000835;28;20410;-51
2021/01/25 11:10:44;;;;;;;20.45;11.45;;;1.40;99.90;;;;;;5000584;28;20093;-56
2021/01/25 11:13:10;;;;;;;16.98;9.82;;;1.50;99.90;;;;;;5003927;28;20057;-54
2021/01/25 11:15:36;;;;;;;17.33;9.00;;;1.50;99.90;;;;;;5003680;28;20107;-60
2021/01/25 11:18:03;;;;;;;16.63;8.80;;;1.50;99.90;;;;;;5004045;28;20038;-60
2021/01/25 11:20:28;;;;;;;14.43;8.10;;;1.40;99.90;;;;;;4993774;28;20046;-60
2021/01/25 11:22:54;;;;;;;11.57;7.80;;;1.40;99.90;;;;;;5006885;28;20050;-50
2021/01/25 11:25:19;;;;;;;13.90;8.63;;;1.30;99.90;;;;;;5004351;28;20185;-56
2021/01/25 11:27:45;;;;;;;13.65;7.43;;;1.20;99.90;;;;;;5004443;28;20034;-52
2021/01/25 11:30:11;;;;;;;12.70;7.07;;;1.20;99.90;;;;;;5004853;28;20135;-54
2021/01/25 11:32:36;;;;;;;16.38;7.85;;;1.10;99.90;;;;;;5006915;28;20192;-53
2021/01/25 11:35:41;;;;;;;15.70;9.00;;;1.30;99.90;;;;;;5010869;28;20465;-48
2021/01/25 11:38:26;;;;;;;13.43;7.97;;;1.50;99.90;;;;;;4998300;28;20053;-56
2021/01/25 11:40:52;;;;;;;16.02;9.98;;;1.50;99.90;;;;;;5002703;28;20034;-52
2021/01/25 11:43:17;;;;;;;15.82;8.25;;;1.60;99.90;;;;;;5006661;28;20034;-54
2021/01/25 11:45:43;;;;;;;13.55;7.53;;;1.70;99.90;;;;;;5017463;28;20044;-54
2021/01/25 11:48:09;;;;;;;16.15;8.68;;;1.60;99.90;;;;;;5009087;28;20041;-52
2021/01/25 11:50:35;;;;;;;16.73;8.98;;;1.60;99.90;;;;;;5006173;28;20107;-57
2021/01/25 11:53:01;;;;;;;15.73;8.30;;;1.70;99.90;;;;;;5001388;28;20129;-53
2021/01/25 11:55:27;;;;;;;15.27;8.95;;;1.80;99.90;;;;;;5005337;28;20033;-54
2021/01/25 11:57:52;;;;;;;17.98;7.28;;;1.80;99.90;;;;;;5006087;28;20038;-53
2021/01/25 12:00:18;;;;;;;11.70;6.88;;;2.00;99.90;;;;;;5002335;28;20117;-56
2021/01/25 12:02:44;;;;;;;9.90;6.03;;;2.00;99.90;;;;;;5005831;28;20065;-51
2021/01/25 12:05:10;;;;;;;19.23;8.93;;;2.00;99.90;;;;;;4998568;28;20034;-57
2021/01/25 12:07:36;;;;;;;13.57;7.50;;;2.00;99.90;;;;;;5000618;28;20125;-51
2021/01/25 12:10:04;;;;;;;17.55;7.30;;;2.20;99.90;;;;;;5005138;28;20570;-54
2021/01/25 12:12:29;;;;;;;10.40;5.45;;;2.20;99.90;;;;;;5009236;28;20121;-55
2021/01/25 12:14:55;;;;;;;12.48;6.57;;;1.80;99.90;;;;;;5009468;28;20442;-54
2021/01/25 12:17:21;;;;;;;13.82;7.22;;;1.90;99.90;;;;;;5007044;28;20054;-54
2021/01/25 12:19:46;;;;;;;14.80;7.22;;;1.80;99.90;;;;;;5007657;28;20049;-57
2021/01/25 12:22:12;;;;;;;11.35;5.75;;;2.00;99.90;;;;;;5009762;28;21385;-53
2021/01/25 12:24:37;;;;;;;13.98;5.78;;;2.10;99.90;;;;;;5007680;28;20061;-56
2021/01/25 12:27:05;;;;;;;9.65;4.70;;;2.20;99.90;;;;;;5007930;28;20238;-57
2021/01/25 12:29:31;;;;;;;8.00;4.57;;;2.30;99.90;;;;;;5005979;28;20069;-52
2021/01/25 12:31:57;;;;;;;32.65;18.63;;;2.40;99.90;;;;;;5009649;28;20111;-55
2021/01/25 12:34:26;;;;;;;47.00;24.35;;;2.40;99.90;;;;;;5009640;28;20084;-57
2021/01/25 12:36:52;;;;;;;14.50;7.03;;;2.30;99.90;;;;;;5007824;28;20042;-52
2021/01/25 12:39:17;;;;;;;9.90;4.38;;;2.30;99.90;;;;;;4997306;28;20049;-54
2021/01/25 12:41:43;;;;;;;9.63;3.65;;;2.10;99.90;;;;;;5000982;28;20041;-51
2021/01/25 12:44:08;;;;;;;5.57;3.30;;;2.10;99.90;;;;;;5008964;28;20957;-52